Time;durP1;ratioP1;P1;durP2;ratioP2;P2;SDS_P1;SDS_P2;PMS_P1;PMS_P2;Temp;Humidity;BMP_temperature;BMP_pressure;BME280_temperature;BME280_humidity;BME280_pressure;Samples;Min_cycle;Max_cycle;Signal;HPM_P1;HPM_P2
2023/01/27 00:01:31;;;;;;;12.95;9.25;;;16.00;65.40;;;;;;5060877;28;20048;-12
2023/01/27 00:03:57;;;;;;;11.07;8.25;;;16.00;65.30;;;;;;5051239;28;20043;-13
2023/01/27 00:06:23;;;;;;;11.48;8.35;;;16.00;65.40;;;;;;5047521;28;20526;-14
2023/01/27 00:08:48;;;;;;;10.65;8.30;;;16.00;65.40;;;;;;5050453;28;20132;-12
2023/01/27 00:13:58;;;;;;;10.68;7.80;;;16.00;65.10;;;;;;5050364;28;20072;-17
2023/01/27 00:16:23;;;;;;;11.82;8.23;;;16.00;65.30;;;;;;5048833;28;20044;-14
2023/01/27 00:18:49;;;;;;;10.95;8.57;;;15.90;65.50;;;;;;5051694;28;20049;-16
2023/01/27 00:26:43;;;;;;;10.05;8.07;;;16.00;65.20;;;;;;5049038;28;20561;-12
2023/01/27 00:29:08;;;;;;;10.73;7.93;;;16.00;65.20;;;;;;5055307;28;20049;-12
2023/01/27 00:34:18;;;;;;;10.23;7.90;;;16.00;65.00;;;;;;5050055;28;20067;-19
2023/01/27 00:36:44;;;;;;;11.55;7.55;;;16.00;65.10;;;;;;5043298;28;20033;-11
2023/01/27 00:39:10;;;;;;;9.05;7.72;;;16.00;65.00;;;;;;5046646;28;20495;-11
2023/01/27 00:41:35;;;;;;;8.50;6.85;;;16.00;65.00;;;;;;5062900;28;20574;-11
2023/01/27 00:44:01;;;;;;;10.00;7.07;;;16.00;65.00;;;;;;5044027;28;20053;-11
2023/01/27 00:46:27;;;;;;;7.93;6.80;;;16.00;64.80;;;;;;5046433;28;20106;-12
2023/01/27 00:48:52;;;;;;;8.95;6.70;;;16.00;64.70;;;;;;5043152;28;20055;-11
2023/01/27 00:51:18;;;;;;;10.02;7.10;;;16.00;64.70;;;;;;5054742;28;20136;-13
2023/01/27 00:53:44;;;;;;;7.10;6.40;;;16.00;64.70;;;;;;5048028;28;20140;-14
2023/01/27 00:56:10;;;;;;;8.23;6.50;;;16.00;64.70;;;;;;5047386;28;20048;-15
2023/01/27 00:58:35;;;;;;;9.40;6.63;;;16.00;64.80;;;;;;5053585;28;20053;-12
2023/01/27 01:01:03;;;;;;;7.63;6.30;;;16.00;64.80;;;;;;5054959;28;20041;-11
2023/01/27 01:03:32;;;;;;;10.80;6.85;;;15.90;64.80;;;;;;5057253;28;20051;-11
2023/01/27 01:06:02;;;;;;;9.88;7.20;;;15.90;64.80;;;;;;5055188;28;20089;-11
2023/01/27 01:08:29;;;;;;;7.32;6.63;;;16.00;64.50;;;;;;5067434;28;20041;-12
2023/01/27 01:10:55;;;;;;;8.48;6.78;;;16.00;64.60;;;;;;5043097;28;20538;-17
2023/01/27 01:13:21;;;;;;;7.10;6.40;;;15.90;64.70;;;;;;5052061;28;20053;-12
2023/01/27 01:15:46;;;;;;;7.20;6.10;;;16.00;64.50;;;;;;5044387;28;20408;-11
2023/01/27 01:18:12;;;;;;;7.03;6.32;;;16.00;64.30;;;;;;5042500;28;20057;-11
2023/01/27 01:20:39;;;;;;;6.50;5.93;;;16.00;64.40;;;;;;5045680;28;20137;-14
2023/01/27 01:23:05;;;;;;;6.80;5.75;;;16.00;64.30;;;;;;5041076;28;20132;-19
2023/01/27 01:25:31;;;;;;;7.35;6.35;;;16.00;64.40;;;;;;5043293;28;20060;-17
2023/01/27 01:27:56;;;;;;;6.78;6.18;;;16.00;64.30;;;;;;5063248;28;20397;-12
2023/01/27 01:30:25;;;;;;;6.78;6.15;;;15.90;64.30;;;;;;5062525;28;20523;-11
2023/01/27 01:32:51;;;;;;;7.38;6.28;;;15.90;64.70;;;;;;5062826;28;20040;-11
2023/01/27 01:35:17;;;;;;;5.95;5.35;;;15.80;64.80;;;;;;5043479;28;20041;-17
2023/01/27 01:37:43;;;;;;;6.80;5.90;;;15.80;64.80;;;;;;5046491;28;20530;-12
2023/01/27 01:40:11;;;;;;;5.93;5.32;;;15.80;64.60;;;;;;5045816;28;21014;-11
2023/01/27 01:42:49;;;;;;;6.07;5.57;;;16.00;64.10;;;;;;5044121;28;20123;-15
2023/01/27 01:45:35;;;;;;;6.70;5.65;;;15.90;64.30;;;;;;5045298;28;20045;-13
2023/01/27 01:48:09;;;;;;;6.65;5.32;;;16.10;63.60;;;;;;5061419;28;20036;-11
2023/01/27 01:50:35;;;;;;;;;;;16.00;64.00;;;;;;5043712;28;20672;-13
2023/01/27 01:53:00;;;;;;;6.05;5.43;;;15.90;63.90;;;;;;5045412;28;19970;-12
2023/01/27 01:55:26;;;;;;;4.70;4.20;;;15.90;64.50;;;;;;5072371;28;20040;-12
2023/01/27 01:57:52;;;;;;;5.45;4.93;;;15.90;64.20;;;;;;5062979;28;20731;-12
2023/01/27 02:00:17;;;;;;;5.60;5.18;;;16.00;64.00;;;;;;5049150;28;20102;-14
2023/01/27 02:02:43;;;;;;;4.93;4.53;;;16.00;63.80;;;;;;5048605;28;20099;-12
2023/01/27 02:05:38;;;;;;;5.47;5.07;;;15.90;64.10;;;;;;5060521;28;20041;-12
2023/01/27 02:08:16;;;;;;;5.57;5.18;;;15.90;64.40;;;;;;5051747;28;20114;-13
2023/01/27 02:10:42;;;;;;;5.32;4.85;;;15.90;64.20;;;;;;5029391;28;20037;-13
2023/01/27 02:13:07;;;;;;;5.15;4.72;;;15.80;64.40;;;;;;5063417;28;20051;-11
2023/01/27 02:15:33;;;;;;;5.32;4.82;;;15.80;64.40;;;;;;5065722;28;20474;-14
2023/01/27 02:17:59;;;;;;;4.82;4.40;;;15.80;64.40;;;;;;5066699;28;20396;-13
2023/01/27 02:20:41;;;;;;;4.68;4.28;;;15.80;64.60;;;;;;5055950;28;20078;-15
2023/01/27 02:23:25;;;;;;;4.80;4.40;;;15.80;64.50;;;;;;5054305;28;20118;-12
2023/01/27 02:25:55;;;;;;;5.57;4.68;;;15.80;64.40;;;;;;5047561;28;20037;-12
2023/01/27 02:28:21;;;;;;;4.53;3.90;;;15.80;64.50;;;;;;5044095;28;20419;-11
2023/01/27 02:30:46;;;;;;;6.07;3.85;;;15.80;64.40;;;;;;5044031;28;20044;-12
2023/01/27 02:33:13;;;;;;;4.43;4.00;;;15.80;64.40;;;;;;5057554;28;20136;-15
2023/01/27 02:35:48;;;;;;;4.20;3.90;;;15.90;64.20;;;;;;5048884;28;20109;-11
2023/01/27 02:38:13;;;;;;;4.63;4.18;;;15.90;64.10;;;;;;5042291;28;20131;-12
2023/01/27 02:40:39;;;;;;;4.63;4.22;;;15.90;64.20;;;;;;5045362;28;20489;-11
2023/01/27 02:43:04;;;;;;;4.28;3.97;;;15.80;64.10;;;;;;5044445;28;20083;-12
2023/01/27 02:45:30;;;;;;;4.70;4.35;;;15.80;64.30;;;;;;5047640;28;20136;-13
2023/01/27 02:47:56;;;;;;;4.75;4.35;;;15.80;64.30;;;;;;5047878;28;20037;-11
2023/01/27 02:50:21;;;;;;;4.07;3.78;;;15.80;64.40;;;;;;5046150;28;20186;-13
2023/01/27 02:52:47;;;;;;;4.28;3.88;;;15.80;64.30;;;;;;5048506;28;20118;-12
2023/01/27 02:55:12;;;;;;;3.95;3.65;;;15.90;64.20;;;;;;5045421;28;20135;-12
2023/01/27 02:57:38;;;;;;;3.95;3.55;;;15.90;64.00;;;;;;5044359;28;20457;-12
2023/01/27 03:00:04;;;;;;;4.88;4.28;;;15.80;64.30;;;;;;5046017;28;20127;-11
2023/01/27 03:02:30;;;;;;;3.88;3.58;;;15.80;64.30;;;;;;5060215;28;20040;-12
2023/01/27 03:04:56;;;;;;;3.63;3.33;;;15.80;64.30;;;;;;5045663;28;20041;-14
2023/01/27 03:07:22;;;;;;;3.80;3.40;;;15.80;64.30;;;;;;5044947;28;20115;-13
2023/01/27 03:09:48;;;;;;;3.88;3.58;;;15.80;64.30;;;;;;5047342;28;20042;-12
2023/01/27 03:12:19;;;;;;;3.50;3.20;;;15.70;64.40;;;;;;5049200;28;20041;-14
2023/01/27 03:20:14;;;;;;;3.67;3.38;;;15.90;63.80;;;;;;5050490;28;20093;-12
2023/01/27 03:22:39;;;;;;;3.50;3.20;;;15.70;64.10;;;;;;5059009;28;20041;-13
2023/01/27 03:25:05;;;;;;;3.08;2.88;;;15.80;64.20;;;;;;5053207;28;20033;-13
2023/01/27 03:27:31;;;;;;;2.97;2.78;;;15.80;64.20;;;;;;5052531;28;20038;-12
2023/01/27 03:29:56;;;;;;;3.53;3.22;;;15.80;64.20;;;;;;5051216;28;20033;-12
2023/01/27 03:32:23;;;;;;;2.88;2.67;;;15.70;64.40;;;;;;5054997;28;20072;-12
2023/01/27 03:34:48;;;;;;;3.33;3.05;;;15.70;64.40;;;;;;5056595;28;20049;-13
2023/01/27 03:48:11;;;;;;;;;;;15.70;64.30;;;;;;5042427;28;20523;-13
2023/01/27 03:50:40;;;;;;;3.00;2.75;;;15.80;64.30;;;;;;5043518;28;20418;-13
2023/01/27 03:53:06;;;;;;;2.92;2.72;;;15.80;64.10;;;;;;5052815;28;20124;-12
2023/01/27 03:55:33;;;;;;;3.25;2.97;;;15.70;64.10;;;;;;5045647;28;20123;-13
2023/01/27 03:58:13;;;;;;;3.40;2.83;;;15.90;63.90;;;;;;5064888;28;20623;-13
2023/01/27 04:00:38;;;;;;;3.28;2.83;;;15.90;63.70;;;;;;5060307;28;20113;-12
2023/01/27 04:08:33;;;;;;;2.10;2.00;;;15.80;63.60;;;;;;5036345;28;20063;-12
2023/01/27 04:13:46;;;;;;;3.10;2.80;;;15.90;63.80;;;;;;5063344;28;20055;-12
2023/01/27 04:16:12;;;;;;;2.38;2.25;;;15.80;63.60;;;;;;5056749;28;20048;-19
2023/01/27 04:18:37;;;;;;;2.60;2.38;;;15.80;63.70;;;;;;5056021;28;20508;-12
2023/01/27 04:21:03;;;;;;;3.33;2.42;;;15.80;64.00;;;;;;5045375;28;20045;-12
2023/01/27 04:23:29;;;;;;;2.28;2.08;;;15.80;63.90;;;;;;5044369;28;20056;-12
2023/01/27 04:25:55;;;;;;;2.90;2.70;;;15.80;64.00;;;;;;5056230;28;20094;-16
2023/01/27 04:28:21;;;;;;;2.60;2.40;;;15.90;63.80;;;;;;5052969;28;20048;-12
2023/01/27 04:30:47;;;;;;;2.28;2.08;;;15.80;63.60;;;;;;5049215;28;20503;-15
2023/01/27 04:33:14;;;;;;;2.25;2.15;;;15.80;63.60;;;;;;5043302;28;20056;-12
2023/01/27 04:35:43;;;;;;;2.50;2.30;;;15.70;63.90;;;;;;5048522;28;20049;-15
2023/01/27 04:38:09;;;;;;;2.28;2.17;;;15.80;63.80;;;;;;5043459;28;20090;-12
2023/01/27 04:40:35;;;;;;;2.25;2.05;;;15.80;63.80;;;;;;5055395;28;20053;-14
2023/01/27 04:43:00;;;;;;;2.75;2.55;;;15.90;63.50;;;;;;5053880;28;20083;-18
2023/01/27 04:45:26;;;;;;;2.80;2.60;;;15.90;63.70;;;;;;5061614;28;20149;-12
2023/01/27 04:47:51;;;;;;;2.28;2.17;;;15.80;63.90;;;;;;5050522;28;20045;-12
2023/01/27 04:50:17;;;;;;;2.30;2.15;;;15.80;64.20;;;;;;5064806;28;20041;-12
2023/01/27 04:52:44;;;;;;;2.58;2.38;;;15.70;64.40;;;;;;5063525;28;20052;-12
2023/01/27 04:55:10;;;;;;;2.00;1.90;;;15.80;64.00;;;;;;5062800;28;20040;-13
2023/01/27 04:57:35;;;;;;;2.45;2.25;;;15.90;64.00;;;;;;5054357;28;20049;-12
2023/01/27 05:00:02;;;;;;;2.03;1.92;;;15.90;64.20;;;;;;5045988;28;20045;-12
2023/01/27 05:02:28;;;;;;;2.22;2.13;;;15.90;64.10;;;;;;5058316;28;20305;-18
2023/01/27 05:04:54;;;;;;;2.05;1.95;;;15.80;64.10;;;;;;5047458;28;20522;-18
2023/01/27 05:07:19;;;;;;;1.70;1.60;;;16.00;63.90;;;;;;5050755;28;20044;-13
2023/01/27 05:09:45;;;;;;;2.25;2.05;;;16.00;63.90;;;;;;5049850;28;20182;-13
2023/01/27 05:12:10;;;;;;;2.35;2.15;;;15.90;63.90;;;;;;5054007;28;20033;-12
2023/01/27 05:14:36;;;;;;;2.50;2.30;;;15.90;64.10;;;;;;5045998;28;20051;-11
2023/01/27 05:17:01;;;;;;;1.70;1.60;;;15.90;63.90;;;;;;5060120;28;20040;-12
2023/01/27 05:19:27;;;;;;;2.22;2.10;;;15.90;64.00;;;;;;5049379;28;20040;-14
2023/01/27 05:21:53;;;;;;;2.20;2.00;;;15.90;64.10;;;;;;5058921;28;20128;-12
2023/01/27 05:24:18;;;;;;;2.20;2.08;;;15.90;64.10;;;;;;5046799;28;20053;-13
2023/01/27 05:26:44;;;;;;;2.10;2.00;;;15.90;64.10;;;;;;5062577;28;20853;-12
2023/01/27 05:29:09;;;;;;;1.80;1.70;;;15.90;64.20;;;;;;5056271;28;20049;-13
2023/01/27 05:31:35;;;;;;;2.30;2.13;;;15.80;64.20;;;;;;5055224;28;20124;-12
2023/01/27 05:34:01;;;;;;;2.22;2.03;;;15.90;64.20;;;;;;5046547;28;20041;-16
2023/01/27 05:36:27;;;;;;;2.00;1.90;;;15.80;64.30;;;;;;5045435;28;20530;-12
2023/01/27 05:38:53;;;;;;;2.20;2.00;;;15.80;64.40;;;;;;5047870;28;21277;-12
2023/01/27 05:41:18;;;;;;;1.73;1.60;;;15.90;64.20;;;;;;5065006;28;20037;-13
2023/01/27 05:43:45;;;;;;;2.38;2.28;;;15.80;64.40;;;;;;5050522;28;20041;-12
2023/01/27 05:46:14;;;;;;;1.85;1.75;;;15.80;64.30;;;;;;5043943;28;20049;-20
2023/01/27 05:48:41;;;;;;;2.08;1.98;;;15.80;64.30;;;;;;5054099;28;20052;-12
2023/01/27 05:51:07;;;;;;;1.83;1.73;;;15.80;64.40;;;;;;5045188;28;20068;-13
2023/01/27 05:53:33;;;;;;;1.90;1.80;;;15.80;64.30;;;;;;5050851;28;20126;-13
2023/01/27 05:55:58;;;;;;;1.95;1.85;;;15.80;64.40;;;;;;5048375;28;20056;-13
2023/01/27 05:58:24;;;;;;;1.95;1.85;;;15.90;64.10;;;;;;5045764;28;20049;-13
2023/01/27 06:00:50;;;;;;;1.80;1.70;;;15.80;64.20;;;;;;5052077;28;20427;-12
2023/01/27 06:03:16;;;;;;;1.55;1.45;;;15.80;63.90;;;;;;5056928;28;20041;-13
2023/01/27 06:05:56;;;;;;;1.63;1.52;;;15.80;64.00;;;;;;5055859;28;20072;-12
2023/01/27 06:08:23;;;;;;;2.30;2.20;;;15.70;64.60;;;;;;5055626;28;20041;-13
2023/01/27 06:10:48;;;;;;;3.75;2.80;;;15.60;66.70;;;;;;5045505;28;20052;-13
2023/01/27 06:13:14;;;;;;;2.70;2.50;;;15.50;66.60;;;;;;5045956;28;21291;-14
2023/01/27 06:15:44;;;;;;;2.58;2.47;;;15.50;68.20;;;;;;5045816;28;20075;-12
2023/01/27 06:18:10;;;;;;;2.63;2.42;;;15.50;68.30;;;;;;5055653;28;20041;-13
2023/01/27 06:20:36;;;;;;;2.40;2.20;;;15.50;68.20;;;;;;5063765;28;20040;-11
2023/01/27 06:23:02;;;;;;;4.25;2.67;;;15.70;67.90;;;;;;5048791;28;20053;-14
2023/01/27 06:25:27;;;;;;;2.53;2.33;;;15.80;67.80;;;;;;5057268;28;20080;-13
2023/01/27 06:27:56;;;;;;;5.45;2.38;;;15.70;67.90;;;;;;5053545;28;20048;-13
2023/01/27 06:30:22;;;;;;;2.20;2.10;;;15.80;67.50;;;;;;5051631;28;20060;-11
2023/01/27 06:32:48;;;;;;;2.58;2.38;;;16.00;66.70;;;;;;5054683;28;20086;-13
2023/01/27 06:35:14;;;;;;;2.80;2.42;;;15.90;66.60;;;;;;5045630;28;20040;-13
2023/01/27 06:37:39;;;;;;;2.33;2.13;;;16.10;65.90;;;;;;5046748;28;20035;-13
2023/01/27 06:40:05;;;;;;;1.95;1.85;;;15.90;65.90;;;;;;5046317;28;20033;-12
2023/01/27 06:42:31;;;;;;;2.50;2.30;;;15.90;66.40;;;;;;5060353;28;20041;-12
2023/01/27 06:44:57;;;;;;;3.40;2.40;;;15.80;66.70;;;;;;5036320;28;20037;-13
2023/01/27 06:47:22;;;;;;;2.42;2.22;;;15.90;66.50;;;;;;5055168;28;20040;-12
2023/01/27 06:49:48;;;;;;;2.00;1.85;;;15.90;66.50;;;;;;5057581;28;20064;-12
2023/01/27 06:52:13;;;;;;;1.95;1.85;;;15.80;66.50;;;;;;5058914;28;20037;-12
2023/01/27 06:54:39;;;;;;;2.42;2.22;;;15.80;66.40;;;;;;5066134;28;20109;-12
2023/01/27 06:57:04;;;;;;;2.05;1.95;;;15.80;66.70;;;;;;5050193;28;20045;-20
2023/01/27 06:59:30;;;;;;;2.22;2.03;;;15.70;67.00;;;;;;5052390;28;20036;-12
2023/01/27 07:01:56;;;;;;;2.67;2.20;;;15.90;66.50;;;;;;5040619;28;20064;-12
2023/01/27 07:04:21;;;;;;;2.55;2.35;;;16.00;65.90;;;;;;5044828;28;20040;-12
2023/01/27 07:06:47;;;;;;;2.25;2.05;;;16.00;66.20;;;;;;5050325;28;20079;-12
2023/01/27 07:09:13;;;;;;;2.30;2.10;;;15.90;66.10;;;;;;5058251;28;20143;-12
2023/01/27 07:11:38;;;;;;;2.80;2.60;;;15.90;66.10;;;;;;5057845;28;20492;-13
2023/01/27 07:14:04;;;;;;;3.47;2.30;;;16.00;65.70;;;;;;5058214;28;20052;-14
2023/01/27 07:16:29;;;;;;;2.60;2.40;;;16.10;65.50;;;;;;5041150;28;20543;-12
2023/01/27 07:18:55;;;;;;;3.28;2.60;;;16.20;65.70;;;;;;5041341;28;20487;-11
2023/01/27 07:21:20;;;;;;;2.55;2.35;;;16.20;65.50;;;;;;5060149;28;20040;-12
2023/01/27 07:23:46;;;;;;;2.13;1.95;;;16.10;65.80;;;;;;5041585;28;20063;-12
2023/01/27 07:26:12;;;;;;;2.15;1.95;;;16.20;65.50;;;;;;5041110;28;20435;-12
2023/01/27 07:28:37;;;;;;;2.10;2.00;;;16.20;65.60;;;;;;5038691;28;20079;-13
2023/01/27 07:31:03;;;;;;;2.15;1.95;;;16.20;65.70;;;;;;5040945;28;20037;-15
2023/01/27 07:33:28;;;;;;;3.80;1.88;;;16.20;65.50;;;;;;5040864;28;20089;-13
2023/01/27 07:35:54;;;;;;;2.47;1.90;;;16.20;65.40;;;;;;5038248;28;20041;-12
2023/01/27 07:38:20;;;;;;;2.00;1.90;;;16.20;65.70;;;;;;5039650;28;20466;-12
2023/01/27 07:40:45;;;;;;;2.33;2.20;;;16.30;65.30;;;;;;5043953;28;20040;-12
2023/01/27 07:43:11;;;;;;;2.67;1.85;;;16.30;65.50;;;;;;5040850;28;20149;-12
2023/01/27 07:45:36;;;;;;;2.53;1.80;;;16.20;65.50;;;;;;5037327;28;20102;-12
2023/01/27 07:48:03;;;;;;;1.90;1.80;;;16.20;65.50;;;;;;5046062;28;20045;-12
2023/01/27 07:50:29;;;;;;;2.00;1.90;;;16.30;65.30;;;;;;5047709;28;20041;-15
2023/01/27 07:52:58;;;;;;;2.15;1.70;;;16.30;65.40;;;;;;5059928;28;20106;-16
2023/01/27 07:55:24;;;;;;;1.77;1.67;;;16.20;65.20;;;;;;5059363;28;20033;-15
2023/01/27 07:57:52;;;;;;;2.03;1.92;;;16.20;65.10;;;;;;5048460;28;20055;-16
2023/01/27 08:00:20;;;;;;;2.88;1.70;;;16.20;65.10;;;;;;5046581;28;20044;-15
2023/01/27 08:02:50;;;;;;;2.20;2.00;;;16.20;65.10;;;;;;5055361;28;20539;-15
2023/01/27 08:05:15;;;;;;;1.75;1.65;;;16.20;65.10;;;;;;5043868;28;20373;-16
2023/01/27 08:07:41;;;;;;;2.17;1.88;;;16.30;64.90;;;;;;5061678;28;20049;-17
2023/01/27 08:10:07;;;;;;;1.80;1.70;;;16.30;64.90;;;;;;5044049;28;20082;-19
2023/01/27 08:12:33;;;;;;;2.28;2.10;;;16.20;64.80;;;;;;5040381;28;20045;-16
2023/01/27 08:14:59;;;;;;;1.73;1.63;;;16.30;64.80;;;;;;5055977;28;20057;-17
2023/01/27 08:17:24;;;;;;;1.52;1.42;;;16.30;64.70;;;;;;5055187;28;20036;-15
2023/01/27 08:19:50;;;;;;;1.90;1.80;;;16.30;64.70;;;;;;5063589;28;20064;-25
2023/01/27 08:22:19;;;;;;;3.05;1.70;;;16.30;64.50;;;;;;5048846;28;20025;-15
2023/01/27 08:24:45;;;;;;;1.88;1.50;;;16.30;64.40;;;;;;5053998;28;20119;-15
2023/01/27 08:27:11;;;;;;;1.50;1.40;;;16.20;64.60;;;;;;5069670;28;20440;-15
2023/01/27 08:29:37;;;;;;;1.48;1.40;;;16.20;64.50;;;;;;5047262;28;20037;-15
2023/01/27 08:32:02;;;;;;;1.70;1.60;;;16.20;64.70;;;;;;5048989;28;20441;-19
2023/01/27 08:34:28;;;;;;;1.50;1.40;;;16.20;64.80;;;;;;5054862;28;20049;-16
2023/01/27 08:36:53;;;;;;;1.52;1.42;;;16.10;64.60;;;;;;5055120;28;20120;-16
2023/01/27 08:39:19;;;;;;;1.60;1.50;;;16.20;64.80;;;;;;5065074;28;20059;-15
2023/01/27 08:41:45;;;;;;;2.22;1.50;;;16.10;64.60;;;;;;5051273;28;20403;-15
2023/01/27 08:44:10;;;;;;;1.63;1.52;;;16.10;64.60;;;;;;5068033;28;20046;-18
2023/01/27 08:46:36;;;;;;;1.40;1.30;;;16.10;64.70;;;;;;5067264;28;20442;-18
2023/01/27 08:49:01;;;;;;;1.92;1.48;;;16.10;64.70;;;;;;5057592;28;20044;-19
2023/01/27 08:51:27;;;;;;;1.58;1.48;;;16.20;64.70;;;;;;5045172;28;20186;-16
2023/01/27 08:53:53;;;;;;;1.48;1.38;;;16.20;64.60;;;;;;5060281;28;20476;-17
2023/01/27 08:56:19;;;;;;;2.50;1.40;;;16.20;64.60;;;;;;5063321;28;20127;-17
2023/01/27 08:58:46;;;;;;;1.50;1.40;;;16.10;64.70;;;;;;5043513;28;20061;-17
2023/01/27 09:01:11;;;;;;;1.58;1.48;;;16.10;64.60;;;;;;5045944;28;20500;-17
2023/01/27 09:03:37;;;;;;;1.52;1.42;;;16.20;64.30;;;;;;5045084;28;20106;-16
2023/01/27 09:06:03;;;;;;;1.45;1.35;;;16.30;64.20;;;;;;5061483;28;20085;-18
2023/01/27 09:08:29;;;;;;;1.52;1.42;;;16.40;63.90;;;;;;5051297;28;20077;-17
2023/01/27 09:10:55;;;;;;;2.42;1.77;;;16.40;63.80;;;;;;5059272;28;20415;-15
2023/01/27 09:13:21;;;;;;;1.10;1.10;;;16.40;63.80;;;;;;5065676;28;20024;-15
2023/01/27 09:15:47;;;;;;;1.30;1.20;;;16.50;63.20;;;;;;5069002;28;20060;-15
2023/01/27 09:18:12;;;;;;;1.60;1.50;;;16.50;63.30;;;;;;5045055;28;20037;-14
2023/01/27 09:20:38;;;;;;;1.48;1.38;;;16.60;62.80;;;;;;5048139;28;20045;-14
2023/01/27 09:23:04;;;;;;;1.30;1.20;;;16.60;62.70;;;;;;5062187;28;20045;-16
2023/01/27 09:25:29;;;;;;;1.20;1.20;;;16.60;62.80;;;;;;5064428;28;20085;-15
2023/01/27 09:27:55;;;;;;;1.20;1.20;;;16.60;62.70;;;;;;5046556;28;20431;-16
2023/01/27 09:30:21;;;;;;;1.25;1.15;;;16.70;62.60;;;;;;5063206;28;20044;-15
2023/01/27 09:32:47;;;;;;;1.58;1.40;;;16.70;62.60;;;;;;5052235;28;20519;-16
2023/01/27 09:35:12;;;;;;;1.17;1.15;;;16.60;62.80;;;;;;5047220;28;20187;-15
2023/01/27 09:37:52;;;;;;;2.45;1.50;;;16.60;63.00;;;;;;5047312;28;20028;-16
2023/01/27 09:40:29;;;;;;;1.42;1.33;;;16.60;63.00;;;;;;5056149;28;20029;-14
2023/01/27 09:43:16;;;;;;;1.10;1.00;;;16.60;63.00;;;;;;5058527;28;20045;-15
2023/01/27 09:46:37;;;;;;;0.90;0.90;;;16.60;63.00;;;;;;5045694;28;20091;-17
2023/01/27 09:49:24;;;;;;;1.08;1.08;;;16.60;63.10;;;;;;5058830;28;20114;-15
2023/01/27 09:51:55;;;;;;;1.25;1.15;;;16.60;63.00;;;;;;5060343;28;20132;-21
2023/01/27 09:54:30;;;;;;;1.15;1.05;;;16.60;63.00;;;;;;5058832;28;20105;-16
2023/01/27 09:57:04;;;;;;;1.30;1.20;;;16.70;62.80;;;;;;5047392;28;20048;-15
2023/01/27 09:59:48;;;;;;;;;;;16.80;62.40;;;;;;5056761;28;20070;-22
2023/01/27 10:02:25;;;;;;;1.75;1.10;;;16.70;62.90;;;;;;5061224;28;20031;-21
2023/01/27 10:05:15;;;;;;;1.00;1.00;;;16.60;63.60;;;;;;5059877;28;20550;-15
2023/01/27 10:07:58;;;;;;;0.90;0.90;;;16.60;63.70;;;;;;5061736;28;20503;-20
2023/01/27 10:11:05;;;;;;;1.25;1.17;;;16.60;63.60;;;;;;5058444;28;20510;-16
2023/01/27 10:13:49;;;;;;;1.02;1.02;;;16.70;63.50;;;;;;5058915;28;20063;-17
2023/01/27 10:16:24;;;;;;;1.17;1.15;;;16.70;63.70;;;;;;5057314;28;20075;-16
2023/01/27 10:19:27;;;;;;;1.30;1.20;;;16.70;63.90;;;;;;5041096;28;20039;-28
2023/01/27 10:21:55;;;;;;;1.30;1.20;;;16.70;64.00;;;;;;5041717;28;20119;-17
2023/01/27 10:24:41;;;;;;;1.33;1.23;;;16.70;63.80;;;;;;5060304;28;20072;-19
2023/01/27 10:27:25;;;;;;;1.10;1.10;;;16.70;63.70;;;;;;5057524;28;20487;-17
2023/01/27 10:29:54;;;;;;;0.90;0.90;;;16.70;63.80;;;;;;5057382;28;20064;-16
2023/01/27 10:32:25;;;;;;;0.93;0.82;;;16.80;63.90;;;;;;5047160;28;20397;-15
2023/01/27 10:35:27;;;;;;;1.10;1.10;;;16.70;63.60;;;;;;5044996;28;20048;-16
2023/01/27 10:37:56;;;;;;;1.10;1.00;;;16.80;63.60;;;;;;5013994;28;20049;-16
2023/01/27 10:40:44;;;;;;;1.40;1.30;;;16.80;63.60;;;;;;5049312;28;20037;-19
2023/01/27 10:43:32;;;;;;;3.08;1.30;;;16.80;63.50;;;;;;5048077;28;20033;-17
2023/01/27 10:46:04;;;;;;;0.73;0.73;;;16.90;63.40;;;;;;5055642;28;20027;-17
2023/01/27 10:48:40;;;;;;;2.20;2.05;;;16.90;63.20;;;;;;5038963;28;20037;-26
2023/01/27 10:51:38;;;;;;;31.38;18.00;;;16.90;63.40;;;;;;5040144;28;20103;-16
2023/01/27 10:54:21;;;;;;;48.15;27.67;;;16.90;63.40;;;;;;5059498;28;20056;-16
2023/01/27 10:56:59;;;;;;;51.30;29.50;;;16.80;63.40;;;;;;5066664;28;20592;-20
2023/01/27 10:59:44;;;;;;;56.90;31.45;;;16.80;63.40;;;;;;5065917;28;20048;-17
2023/01/27 11:02:10;;;;;;;50.58;28.40;;;16.90;63.40;;;;;;5032527;28;20082;-15
2023/01/27 11:04:43;;;;;;;41.08;26.70;;;16.80;63.50;;;;;;5056717;28;20029;-16
2023/01/27 11:07:18;;;;;;;41.53;24.15;;;16.80;63.50;;;;;;5057163;28;20053;-19
2023/01/27 11:10:04;;;;;;;37.00;22.40;;;16.80;63.60;;;;;;5051355;28;20542;-15
2023/01/27 11:12:31;;;;;;;40.10;22.45;;;16.80;63.60;;;;;;5042183;28;20044;-23
2023/01/27 11:14:58;;;;;;;41.17;25.95;;;16.80;63.60;;;;;;5048920;28;20044;-17
2023/01/27 11:17:30;;;;;;;43.03;25.02;;;16.80;64.10;;;;;;5052522;28;20049;-15
2023/01/27 11:19:59;;;;;;;42.58;23.88;;;16.90;63.60;;;;;;5052842;28;20057;-16
2023/01/27 11:22:48;;;;;;;40.58;24.45;;;16.90;63.60;;;;;;5060917;28;20040;-15
2023/01/27 11:25:28;;;;;;;32.13;21.00;;;16.90;64.30;;;;;;5061724;28;20534;-16
2023/01/27 11:28:04;;;;;;;35.90;21.33;;;16.90;63.60;;;;;;5051560;28;20082;-19
2023/01/27 11:31:02;;;;;;;34.50;20.75;;;16.90;63.80;;;;;;5047244;28;20049;-18
2023/01/27 11:33:35;;;;;;;32.25;20.52;;;16.90;64.00;;;;;;5040363;28;20041;-15
2023/01/27 11:36:01;;;;;;;30.95;19.77;;;16.90;64.20;;;;;;5062278;28;20044;-17
2023/01/27 11:38:27;;;;;;;32.60;19.10;;;16.90;64.50;;;;;;5054287;28;20041;-14
2023/01/27 11:40:52;;;;;;;37.55;18.67;;;16.90;64.30;;;;;;5042578;28;20068;-16
2023/01/27 11:43:27;;;;;;;37.30;19.57;;;17.00;64.10;;;;;;4702821;28;10001275;-15
2023/01/27 11:45:56;;;;;;;27.10;17.98;;;17.00;64.30;;;;;;5051860;28;20052;-15
2023/01/27 11:48:22;;;;;;;25.00;17.58;;;17.00;64.30;;;;;;5033702;28;20135;-15
2023/01/27 11:50:47;;;;;;;24.58;16.50;;;17.00;64.20;;;;;;5038671;28;20140;-19
2023/01/27 11:53:35;;;;;;;27.77;17.55;;;17.00;64.30;;;;;;5050574;28;20043;-17
2023/01/27 11:56:09;;;;;;;24.83;16.92;;;17.00;64.20;;;;;;5053735;28;20080;-15
2023/01/27 11:58:43;;;;;;;25.13;15.38;;;17.00;64.20;;;;;;5049242;28;20041;-15
2023/01/27 12:01:31;;;;;;;24.08;14.73;;;17.00;64.00;;;;;;5060958;28;20472;-14
2023/01/27 12:04:12;;;;;;;25.20;16.17;;;17.00;63.90;;;;;;5050034;28;20203;-16
2023/01/27 12:06:50;;;;;;;21.13;15.27;;;17.00;64.00;;;;;;5038990;28;20390;-17
2023/01/27 12:09:37;;;;;;;22.85;15.45;;;17.00;63.80;;;;;;5039599;28;20064;-15
2023/01/27 12:12:20;;;;;;;23.13;15.00;;;17.00;63.70;;;;;;5055050;28;20076;-15
2023/01/27 12:14:55;;;;;;;20.43;14.07;;;17.00;63.80;;;;;;5039895;28;20519;-20
2023/01/27 12:17:39;;;;;;;24.33;14.63;;;17.00;63.70;;;;;;5057437;28;20096;-19
2023/01/27 12:20:24;;;;;;;18.63;12.95;;;17.00;63.60;;;;;;5035778;28;20095;-15
2023/01/27 12:22:52;;;;;;;17.80;13.55;;;17.10;63.70;;;;;;5083033;28;20772;-15
2023/01/27 12:25:26;;;;;;;19.23;13.07;;;17.20;63.20;;;;;;5057927;28;20392;-25
2023/01/27 12:28:02;;;;;;;20.00;13.52;;;17.10;63.30;;;;;;5045214;28;20140;-16
2023/01/27 12:30:37;;;;;;;18.73;11.90;;;17.00;63.50;;;;;;5055757;28;20037;-15
2023/01/27 12:33:16;;;;;;;19.42;12.80;;;17.00;63.50;;;;;;5058408;28;20052;-15
2023/01/27 12:35:42;;;;;;;18.08;12.82;;;17.10;63.20;;;;;;5028869;28;20063;-15
2023/01/27 12:38:14;;;;;;;18.02;13.85;;;17.10;63.10;;;;;;5060249;28;20033;-15
2023/01/27 12:40:42;;;;;;;17.40;12.85;;;17.00;63.10;;;;;;5053049;28;20879;-15
2023/01/27 12:43:11;;;;;;;17.48;13.00;;;17.00;63.50;;;;;;5044734;28;20120;-16
2023/01/27 12:45:39;;;;;;;16.05;12.02;;;16.90;63.70;;;;;;5038316;28;20071;-15
2023/01/27 12:48:08;;;;;;;18.10;11.93;;;16.90;63.90;;;;;;5039732;28;20825;-15
2023/01/27 12:50:37;;;;;;;16.40;12.35;;;16.90;63.90;;;;;;5037792;28;20062;-15
2023/01/27 12:53:22;;;;;;;15.88;11.88;;;17.00;64.70;;;;;;5040621;28;20041;-15
2023/01/27 12:56:09;;;;;;;18.50;12.25;;;16.80;64.10;;;;;;5042118;28;20428;-15
2023/01/27 12:58:53;;;;;;;14.70;11.15;;;16.80;64.30;;;;;;5052869;28;20432;-16
2023/01/27 13:01:19;;;;;;;16.48;11.52;;;16.90;64.00;;;;;;5046675;28;20064;-15
2023/01/27 13:03:45;;;;;;;20.92;12.10;;;16.90;64.00;;;;;;5044304;28;20487;-16
2023/01/27 13:06:17;;;;;;;15.65;12.00;;;16.90;64.00;;;;;;5046656;28;20087;-15
2023/01/27 13:08:43;;;;;;;14.70;10.93;;;16.90;64.10;;;;;;5072631;28;20477;-15
2023/01/27 13:11:08;;;;;;;15.32;10.95;;;16.90;63.80;;;;;;5041231;28;20055;-15
2023/01/27 13:13:34;;;;;;;15.90;11.23;;;16.90;63.90;;;;;;5062304;28;20040;-15
2023/01/27 13:16:17;;;;;;;15.60;10.75;;;16.90;63.80;;;;;;5066557;28;20037;-16
2023/01/27 13:18:52;;;;;;;14.73;11.05;;;16.90;64.00;;;;;;5047470;28;20732;-16
2023/01/27 13:21:18;;;;;;;16.15;11.05;;;16.90;64.20;;;;;;5052394;28;20512;-17
2023/01/27 13:23:44;;;;;;;14.65;11.00;;;16.80;64.20;;;;;;5039978;28;20079;-16
2023/01/27 13:26:14;;;;;;;13.73;10.38;;;16.90;64.20;;;;;;5035324;28;20132;-15
2023/01/27 13:29:03;;;;;;;12.65;9.68;;;16.80;64.10;;;;;;5049677;28;20523;-15
2023/01/27 13:31:42;;;;;;;13.80;10.00;;;16.80;64.10;;;;;;5033821;28;20084;-19